sensor_id;sensor_type;location;lat;lon;timestamp;pressure;altitude;pressure_sealevel;temperature;humidity
6528;BME280;64597;42.664;23.256;2023-03-13T00:01:02;94807.88;;;2.31;51.63
6528;BME280;64597;42.664;23.256;2023-03-13T00:03:33;94809.44;;;2.40;51.65
6528;BME280;64597;42.664;23.256;2023-03-13T00:05:59;94810.06;;;2.42;51.53
6528;BME280;64597;42.664;23.256;2023-03-13T00:08:27;94794.88;;;2.31;51.68
6528;BME280;64597;42.664;23.256;2023-03-13T00:10:53;94809.44;;;2.40;51.29
6528;BME280;64597;42.664;23.256;2023-03-13T00:13:18;94803.59;;;2.38;51.47
6528;BME280;64597;42.664;23.256;2023-03-13T00:15:44;94808.44;;;2.41;51.64
6528;BME280;64597;42.664;23.256;2023-03-13T00:18:09;94816.53;;;2.46;51.50
6528;BME280;64597;42.664;23.256;2023-03-13T00:20:35;94816.41;;;2.40;51.79
6528;BME280;64597;42.664;23.256;2023-03-13T00:23:00;94814.25;;;2.43;51.53
6528;BME280;64597;42.664;23.256;2023-03-13T00:25:26;94805.28;;;2.31;51.50
6528;BME280;64597;42.664;23.256;2023-03-13T00:27:51;94820.72;;;2.33;51.84
6528;BME280;64597;42.664;23.256;2023-03-13T00:30:17;94791.63;;;2.15;51.91
6528;BME280;64597;42.664;23.256;2023-03-13T00:32:44;94815.97;;;2.36;51.94
6528;BME280;64597;42.664;23.256;2023-03-13T00:35:13;94819.91;;;2.32;51.84
6528;BME280;64597;42.664;23.256;2023-03-13T00:37:39;94809.75;;;2.23;51.55
6528;BME280;64597;42.664;23.256;2023-03-13T00:40:05;94821.06;;;2.30;52.15
6528;BME280;64597;42.664;23.256;2023-03-13T00:42:32;94816.69;;;2.30;52.26
6528;BME280;64597;42.664;23.256;2023-03-13T00:44:57;94814.50;;;2.19;52.33
6528;BME280;64597;42.664;23.256;2023-03-13T00:47:23;94799.78;;;2.12;52.42
6528;BME280;64597;42.664;23.256;2023-03-13T00:49:49;94825.44;;;2.15;52.20
6528;BME280;64597;42.664;23.256;2023-03-13T00:52:15;94819.16;;;2.09;51.91
6528;BME280;64597;42.664;23.256;2023-03-13T00:54:40;94818.34;;;2.09;52.20
6528;BME280;64597;42.664;23.256;2023-03-13T00:57:05;94824.16;;;2.11;51.99
6528;BME280;64597;42.664;23.256;2023-03-13T00:59:31;94822.56;;;2.10;51.99
6528;BME280;64597;42.664;23.256;2023-03-13T01:01:57;94747.16;;;1.58;52.01
6528;BME280;64597;42.664;23.256;2023-03-13T01:04:22;94815.47;;;2.04;51.74
6528;BME280;64597;42.664;23.256;2023-03-13T01:06:48;94814.94;;;2.08;51.85
6528;BME280;64597;42.664;23.256;2023-03-13T01:09:14;94790.38;;;1.96;52.06
6528;BME280;64597;42.664;23.256;2023-03-13T01:11:41;94801.94;;;2.08;51.88
6528;BME280;64597;42.664;23.256;2023-03-13T01:14:11;94800.69;;;2.04;52.11
6528;BME280;64597;42.664;23.256;2023-03-13T01:16:38;94809.81;;;2.00;51.99
6528;BME280;64597;42.664;23.256;2023-03-13T01:19:07;94801.03;;;2.01;52.05
6528;BME280;64597;42.664;23.256;2023-03-13T01:21:32;94813.06;;;2.02;52.12
6528;BME280;64597;42.664;23.256;2023-03-13T01:23:58;94802.25;;;1.91;52.17
6528;BME280;64597;42.664;23.256;2023-03-13T01:26:24;94809.22;;;1.90;52.27
6528;BME280;64597;42.664;23.256;2023-03-13T01:28:49;94825.47;;;1.92;52.32
6528;BME280;64597;42.664;23.256;2023-03-13T01:31:27;94776.59;;;1.50;52.79
6528;BME280;64597;42.664;23.256;2023-03-13T01:33:55;94805.09;;;1.81;52.67
6528;BME280;64597;42.664;23.256;2023-03-13T01:36:21;94825.09;;;1.81;52.51
6528;BME280;64597;42.664;23.256;2023-03-13T01:38:48;94823.00;;;1.76;53.22
6528;BME280;64597;42.664;23.256;2023-03-13T01:41:14;94820.81;;;1.65;53.25
6528;BME280;64597;42.664;23.256;2023-03-13T01:43:40;94837.09;;;1.59;53.02
6528;BME280;64597;42.664;23.256;2023-03-13T01:46:19;94841.72;;;1.49;53.52
6528;BME280;64597;42.664;23.256;2023-03-13T01:48:52;94840.72;;;1.50;53.27
6528;BME280;64597;42.664;23.256;2023-03-13T01:51:29;94818.72;;;1.38;53.58
6528;BME280;64597;42.664;23.256;2023-03-13T01:56:42;94832.94;;;1.50;53.36
6528;BME280;64597;42.664;23.256;2023-03-13T01:59:13;94836.47;;;1.57;53.44
6528;BME280;64597;42.664;23.256;2023-03-13T02:01:41;94827.56;;;1.51;53.55
6528;BME280;64597;42.664;23.256;2023-03-13T02:04:08;94830.63;;;1.55;53.61
6528;BME280;64597;42.664;23.256;2023-03-13T02:06:35;94829.94;;;1.38;54.13
6528;BME280;64597;42.664;23.256;2023-03-13T02:09:08;94797.75;;;1.17;54.17
6528;BME280;64597;42.664;23.256;2023-03-13T02:11:51;94833.41;;;1.31;54.26
6528;BME280;64597;42.664;23.256;2023-03-13T02:14:20;94840.31;;;1.38;54.17
6528;BME280;64597;42.664;23.256;2023-03-13T02:16:47;94840.09;;;1.48;54.25
6528;BME280;64597;42.664;23.256;2023-03-13T02:19:37;94845.09;;;1.49;54.19
6528;BME280;64597;42.664;23.256;2023-03-13T02:25:01;94853.75;;;1.42;53.83
6528;BME280;64597;42.664;23.256;2023-03-13T02:27:29;94851.69;;;1.37;54.24
6528;BME280;64597;42.664;23.256;2023-03-13T02:29:54;94857.50;;;1.39;53.92
6528;BME280;64597;42.664;23.256;2023-03-13T02:32:21;94870.53;;;1.31;54.53
6528;BME280;64597;42.664;23.256;2023-03-13T02:34:49;94864.56;;;1.31;54.71
6528;BME280;64597;42.664;23.256;2023-03-13T02:37:17;94871.41;;;1.24;54.68
6528;BME280;64597;42.664;23.256;2023-03-13T02:39:47;94879.38;;;1.22;55.10
6528;BME280;64597;42.664;23.256;2023-03-13T02:42:14;94882.50;;;1.10;55.90
6528;BME280;64597;42.664;23.256;2023-03-13T02:44:42;94895.00;;;1.06;56.03
6528;BME280;64597;42.664;23.256;2023-03-13T02:47:09;94801.63;;;0.51;55.83
6528;BME280;64597;42.664;23.256;2023-03-13T02:49:35;94907.78;;;1.16;55.06
6528;BME280;64597;42.664;23.256;2023-03-13T02:52:27;94904.09;;;1.10;55.23
6528;BME280;64597;42.664;23.256;2023-03-13T02:55:08;94902.34;;;0.95;55.74
6528;BME280;64597;42.664;23.256;2023-03-13T02:57:34;94899.09;;;0.93;55.68
6528;BME280;64597;42.664;23.256;2023-03-13T03:00:01;94889.22;;;0.88;55.24
6528;BME280;64597;42.664;23.256;2023-03-13T03:02:26;94907.50;;;1.03;55.07
6528;BME280;64597;42.664;23.256;2023-03-13T03:04:52;94891.06;;;0.79;55.56
6528;BME280;64597;42.664;23.256;2023-03-13T03:07:17;94897.00;;;0.88;55.67
6528;BME280;64597;42.664;23.256;2023-03-13T03:09:43;94895.44;;;0.71;55.99
6528;BME280;64597;42.664;23.256;2023-03-13T03:12:08;94898.84;;;0.71;56.53
6528;BME280;64597;42.664;23.256;2023-03-13T03:14:34;94885.75;;;0.65;56.54
6528;BME280;64597;42.664;23.256;2023-03-13T03:16:59;94897.69;;;0.74;55.93
6528;BME280;64597;42.664;23.256;2023-03-13T03:19:25;94917.94;;;0.87;56.34
6528;BME280;64597;42.664;23.256;2023-03-13T03:21:50;94909.88;;;0.73;56.25
6528;BME280;64597;42.664;23.256;2023-03-13T03:24:15;94935.94;;;0.88;55.58
6528;BME280;64597;42.664;23.256;2023-03-13T03:26:41;94945.84;;;0.84;56.26
6528;BME280;64597;42.664;23.256;2023-03-13T03:29:06;94938.38;;;0.90;55.51
6528;BME280;64597;42.664;23.256;2023-03-13T03:31:32;94945.16;;;0.91;55.63
6528;BME280;64597;42.664;23.256;2023-03-13T03:33:58;94917.00;;;0.79;55.28
6528;BME280;64597;42.664;23.256;2023-03-13T03:36:24;94931.75;;;0.79;55.65
6528;BME280;64597;42.664;23.256;2023-03-13T03:38:50;94930.63;;;0.73;55.99
6528;BME280;64597;42.664;23.256;2023-03-13T03:41:16;94951.66;;;0.87;56.01
6528;BME280;64597;42.664;23.256;2023-03-13T03:43:43;94949.72;;;0.89;55.94
6528;BME280;64597;42.664;23.256;2023-03-13T03:46:09;94964.47;;;0.88;55.66
6528;BME280;64597;42.664;23.256;2023-03-13T03:48:35;94974.38;;;0.84;55.72
6528;BME280;64597;42.664;23.256;2023-03-13T03:51:00;94972.59;;;0.85;56.03
6528;BME280;64597;42.664;23.256;2023-03-13T03:53:26;94969.19;;;0.93;55.13
6528;BME280;64597;42.664;23.256;2023-03-13T03:59:03;94967.06;;;0.88;55.22
6528;BME280;64597;42.664;23.256;2023-03-13T04:01:29;94974.72;;;0.90;55.13
6528;BME280;64597;42.664;23.256;2023-03-13T04:03:54;94976.31;;;0.91;54.76
6528;BME280;64597;42.664;23.256;2023-03-13T04:06:20;94996.25;;;0.90;55.10
6528;BME280;64597;42.664;23.256;2023-03-13T04:08:45;94967.75;;;0.66;55.42
6528;BME280;64597;42.664;23.256;2023-03-13T04:11:10;94984.31;;;0.73;55.62
6528;BME280;64597;42.664;23.256;2023-03-13T04:13:36;94997.91;;;0.75;55.14
6528;BME280;64597;42.664;23.256;2023-03-13T04:16:10;94997.44;;;0.79;55.28
6528;BME280;64597;42.664;23.256;2023-03-13T04:18:36;95009.09;;;0.83;55.18
6528;BME280;64597;42.664;23.256;2023-03-13T04:21:03;95003.91;;;0.83;55.04
6528;BME280;64597;42.664;23.256;2023-03-13T04:23:29;95009.75;;;0.77;55.13
6528;BME280;64597;42.664;23.256;2023-03-13T04:25:54;94995.16;;;0.60;55.72
6528;BME280;64597;42.664;23.256;2023-03-13T04:28:20;95015.25;;;0.74;56.31
6528;BME280;64597;42.664;23.256;2023-03-13T04:30:45;94989.50;;;0.57;56.05
6528;BME280;64597;42.664;23.256;2023-03-13T04:33:13;95015.91;;;0.76;56.42
6528;BME280;64597;42.664;23.256;2023-03-13T04:35:39;95022.72;;;0.77;56.21
6528;BME280;64597;42.664;23.256;2023-03-13T04:38:04;95035.84;;;0.76;56.36
6528;BME280;64597;42.664;23.256;2023-03-13T04:40:30;95047.38;;;0.73;56.48
6528;BME280;64597;42.664;23.256;2023-03-13T04:42:55;95052.41;;;0.67;56.57
6528;BME280;64597;42.664;23.256;2023-03-13T04:45:21;95046.72;;;0.63;57.29
6528;BME280;64597;42.664;23.256;2023-03-13T04:47:46;95049.97;;;0.65;56.69
6528;BME280;64597;42.664;23.256;2023-03-13T04:50:12;95057.25;;;0.70;56.84
6528;BME280;64597;42.664;23.256;2023-03-13T04:52:37;95039.75;;;0.56;56.88
6528;BME280;64597;42.664;23.256;2023-03-13T04:55:03;95045.59;;;0.50;57.08
6528;BME280;64597;42.664;23.256;2023-03-13T04:57:29;95062.91;;;0.57;57.19
6528;BME280;64597;42.664;23.256;2023-03-13T04:59:55;95068.94;;;0.58;57.62
6528;BME280;64597;42.664;23.256;2023-03-13T05:02:20;95046.56;;;0.49;57.53
6528;BME280;64597;42.664;23.256;2023-03-13T05:04:46;95059.69;;;0.55;58.02
6528;BME280;64597;42.664;23.256;2023-03-13T05:07:11;95044.13;;;0.55;57.43
6528;BME280;64597;42.664;23.256;2023-03-13T05:09:40;95054.84;;;0.60;57.31
6528;BME280;64597;42.664;23.256;2023-03-13T05:12:06;95049.81;;;0.59;57.69
6528;BME280;64597;42.664;23.256;2023-03-13T05:14:31;95055.66;;;0.53;57.68
6528;BME280;64597;42.664;23.256;2023-03-13T05:16:57;95065.22;;;0.60;57.76
6528;BME280;64597;42.664;23.256;2023-03-13T05:19:23;95047.06;;;0.52;57.80
6528;BME280;64597;42.664;23.256;2023-03-13T05:21:48;95063.75;;;0.66;57.43
6528;BME280;64597;42.664;23.256;2023-03-13T05:24:13;95066.69;;;0.63;57.27
6528;BME280;64597;42.664;23.256;2023-03-13T05:26:48;95073.63;;;0.87;56.92
6528;BME280;64597;42.664;23.256;2023-03-13T05:29:19;95086.31;;;0.98;56.60
6528;BME280;64597;42.664;23.256;2023-03-13T05:31:44;95063.91;;;0.97;56.32
6528;BME280;64597;42.664;23.256;2023-03-13T05:34:11;95080.09;;;1.23;56.40
6528;BME280;64597;42.664;23.256;2023-03-13T05:36:36;95081.03;;;1.38;56.05
6528;BME280;64597;42.664;23.256;2023-03-13T05:39:01;95083.91;;;1.67;54.83
6528;BME280;64597;42.664;23.256;2023-03-13T05:41:27;95085.44;;;1.84;55.03
6528;BME280;64597;42.664;23.256;2023-03-13T05:43:52;95079.28;;;1.85;54.74
6528;BME280;64597;42.664;23.256;2023-03-13T05:46:18;95080.69;;;2.04;53.62
6528;BME280;64597;42.664;23.256;2023-03-13T05:48:44;95083.69;;;2.15;53.76
6528;BME280;64597;42.664;23.256;2023-03-13T05:51:11;95089.44;;;2.33;53.86
6528;BME280;64597;42.664;23.256;2023-03-13T05:53:36;95090.13;;;2.58;53.58
6528;BME280;64597;42.664;23.256;2023-03-13T05:56:02;95089.94;;;2.82;52.42
6528;BME280;64597;42.664;23.256;2023-03-13T05:58:27;95090.94;;;3.04;51.98
6528;BME280;64597;42.664;23.256;2023-03-13T06:00:53;95081.97;;;3.21;50.63
6528;BME280;64597;42.664;23.256;2023-03-13T06:03:18;95020.31;;;2.99;49.53
6528;BME280;64597;42.664;23.256;2023-03-13T06:05:44;95108.84;;;3.73;49.67
6528;BME280;64597;42.664;23.256;2023-03-13T06:08:09;95103.03;;;4.00;48.11
6528;BME280;64597;42.664;23.256;2023-03-13T06:10:34;95099.84;;;4.19;47.61
6528;BME280;64597;42.664;23.256;2023-03-13T06:13:00;95103.38;;;4.48;47.32
6528;BME280;64597;42.664;23.256;2023-03-13T06:15:25;95091.06;;;4.77;46.52
6528;BME280;64597;42.664;23.256;2023-03-13T06:17:51;95089.88;;;5.22;46.90
6528;BME280;64597;42.664;23.256;2023-03-13T06:20:16;95087.97;;;5.65;42.38
6528;BME280;64597;42.664;23.256;2023-03-13T06:22:42;95089.00;;;5.64;43.13
6528;BME280;64597;42.664;23.256;2023-03-13T06:25:08;95086.16;;;5.93;42.85
6528;BME280;64597;42.664;23.256;2023-03-13T06:27:34;95093.94;;;6.14;42.02
6528;BME280;64597;42.664;23.256;2023-03-13T06:29:59;95093.28;;;6.46;40.61
6528;BME280;64597;42.664;23.256;2023-03-13T06:32:26;95090.94;;;6.71;39.95
6528;BME280;64597;42.664;23.256;2023-03-13T06:34:52;95064.59;;;7.12;40.68
6528;BME280;64597;42.664;23.256;2023-03-13T06:37:17;95069.66;;;7.66;39.43
6528;BME280;64597;42.664;23.256;2023-03-13T06:39:43;95055.78;;;8.16;38.62
6528;BME280;64597;42.664;23.256;2023-03-13T06:42:08;95054.03;;;8.61;38.95
6528;BME280;64597;42.664;23.256;2023-03-13T06:44:34;95044.44;;;8.79;37.45
6528;BME280;64597;42.664;23.256;2023-03-13T06:46:59;95071.19;;;9.07;35.94
6528;BME280;64597;42.664;23.256;2023-03-13T06:49:24;95070.34;;;9.38;34.63
6528;BME280;64597;42.664;23.256;2023-03-13T06:51:50;95056.16;;;9.64;34.73
6528;BME280;64597;42.664;23.256;2023-03-13T06:54:15;95063.94;;;9.77;34.11
6528;BME280;64597;42.664;23.256;2023-03-13T06:56:41;95053.03;;;9.91;33.81
6528;BME280;64597;42.664;23.256;2023-03-13T06:59:06;95047.31;;;10.19;33.99
6528;BME280;64597;42.664;23.256;2023-03-13T07:01:32;95049.34;;;10.53;33.43
6528;BME280;64597;42.664;23.256;2023-03-13T07:03:57;95055.81;;;10.87;33.40
6528;BME280;64597;42.664;23.256;2023-03-13T07:06:23;95053.41;;;11.27;32.61
6528;BME280;64597;42.664;23.256;2023-03-13T07:08:48;95053.25;;;11.63;32.59
6528;BME280;64597;42.664;23.256;2023-03-13T07:11:15;95060.75;;;12.01;31.63
6528;BME280;64597;42.664;23.256;2023-03-13T07:13:40;95050.84;;;12.19;30.54
6528;BME280;64597;42.664;23.256;2023-03-13T07:16:08;95056.81;;;12.38;30.40
6528;BME280;64597;42.664;23.256;2023-03-13T07:18:34;95052.06;;;12.80;30.08
6528;BME280;64597;42.664;23.256;2023-03-13T07:21:02;95045.88;;;13.14;29.45
6528;BME280;64597;42.664;23.256;2023-03-13T07:23:33;95031.63;;;13.48;28.01
6528;BME280;64597;42.664;23.256;2023-03-13T07:26:01;95036.06;;;13.43;28.46
6528;BME280;64597;42.664;23.256;2023-03-13T07:28:28;95027.31;;;13.59;28.12
6528;BME280;64597;42.664;23.256;2023-03-13T07:31:11;95035.03;;;13.98;27.65
6528;BME280;64597;42.664;23.256;2023-03-13T07:33:37;95034.03;;;14.38;27.18
6528;BME280;64597;42.664;23.256;2023-03-13T07:36:03;95031.56;;;14.31;26.60
6528;BME280;64597;42.664;23.256;2023-03-13T07:38:29;95038.19;;;14.29;25.87
6528;BME280;64597;42.664;23.256;2023-03-13T07:40:56;95049.41;;;14.19;26.71
6528;BME280;64597;42.664;23.256;2023-03-13T07:43:23;95034.47;;;14.30;26.39
6528;BME280;64597;42.664;23.256;2023-03-13T07:45:59;95039.28;;;14.54;25.80
6528;BME280;64597;42.664;23.256;2023-03-13T07:48:29;95024.88;;;14.72;24.89
6528;BME280;64597;42.664;23.256;2023-03-13T07:50:55;95038.88;;;14.24;26.05
6528;BME280;64597;42.664;23.256;2023-03-13T07:53:23;94989.13;;;14.15;26.30
6528;BME280;64597;42.664;23.256;2023-03-13T07:55:53;95034.84;;;14.60;25.44
6528;BME280;64597;42.664;23.256;2023-03-13T07:58:20;95031.31;;;14.76;25.38
6528;BME280;64597;42.664;23.256;2023-03-13T08:00:45;95011.31;;;14.90;25.13
6528;BME280;64597;42.664;23.256;2023-03-13T08:03:11;95027.13;;;15.33;24.71
6528;BME280;64597;42.664;23.256;2023-03-13T08:05:36;94991.91;;;15.16;25.10
6528;BME280;64597;42.664;23.256;2023-03-13T08:08:02;95000.47;;;15.50;24.31
6528;BME280;64597;42.664;23.256;2023-03-13T08:10:27;95002.50;;;15.70;23.86
6528;BME280;64597;42.664;23.256;2023-03-13T08:12:53;95023.38;;;15.56;24.28
6528;BME280;64597;42.664;23.256;2023-03-13T08:15:18;94989.63;;;15.56;24.83
6528;BME280;64597;42.664;23.256;2023-03-13T08:17:52;95016.66;;;15.80;24.25
6528;BME280;64597;42.664;23.256;2023-03-13T08:20:18;95015.38;;;15.88;24.16
6528;BME280;64597;42.664;23.256;2023-03-13T08:22:44;95014.97;;;16.06;24.08
6528;BME280;64597;42.664;23.256;2023-03-13T08:25:13;95017.84;;;16.41;24.05
6528;BME280;64597;42.664;23.256;2023-03-13T08:27:38;95021.84;;;16.48;23.50
6528;BME280;64597;42.664;23.256;2023-03-13T08:30:04;95024.91;;;16.67;22.95
6528;BME280;64597;42.664;23.256;2023-03-13T08:32:32;95032.28;;;16.55;23.34
6528;BME280;64597;42.664;23.256;2023-03-13T08:34:57;95034.03;;;16.39;23.63
6528;BME280;64597;42.664;23.256;2023-03-13T08:37:23;95026.69;;;16.52;23.07
6528;BME280;64597;42.664;23.256;2023-03-13T08:39:48;95041.69;;;16.21;23.62
6528;BME280;64597;42.664;23.256;2023-03-13T08:42:14;95034.13;;;16.08;24.21
6528;BME280;64597;42.664;23.256;2023-03-13T08:44:40;95024.38;;;15.82;24.03
6528;BME280;64597;42.664;23.256;2023-03-13T08:47:06;95020.88;;;16.18;23.58
6528;BME280;64597;42.664;23.256;2023-03-13T08:49:32;95002.97;;;16.50;23.50
6528;BME280;64597;42.664;23.256;2023-03-13T08:51:58;95023.41;;;16.96;23.66
6528;BME280;64597;42.664;23.256;2023-03-13T08:54:23;95012.25;;;17.19;23.43
6528;BME280;64597;42.664;23.256;2023-03-13T08:56:49;95020.28;;;17.24;22.15
6528;BME280;64597;42.664;23.256;2023-03-13T08:59:14;95018.63;;;17.13;22.26
6528;BME280;64597;42.664;23.256;2023-03-13T09:01:40;95011.09;;;16.85;22.91
6528;BME280;64597;42.664;23.256;2023-03-13T09:04:06;95013.81;;;16.90;23.09
6528;BME280;64597;42.664;23.256;2023-03-13T09:06:33;95025.06;;;17.33;22.80
6528;BME280;64597;42.664;23.256;2023-03-13T09:09:00;95008.59;;;17.51;22.64
6528;BME280;64597;42.664;23.256;2023-03-13T09:11:26;95022.19;;;17.64;22.02
6528;BME280;64597;42.664;23.256;2023-03-13T09:13:53;95017.41;;;17.76;22.28
6528;BME280;64597;42.664;23.256;2023-03-13T09:16:21;95001.66;;;17.80;21.50
6528;BME280;64597;42.664;23.256;2023-03-13T09:18:48;94995.25;;;17.61;21.39
6528;BME280;64597;42.664;23.256;2023-03-13T09:21:19;95010.13;;;17.21;22.46
6528;BME280;64597;42.664;23.256;2023-03-13T09:23:45;95006.94;;;17.29;22.01
6528;BME280;64597;42.664;23.256;2023-03-13T09:26:12;94998.91;;;17.04;22.38
6528;BME280;64597;42.664;23.256;2023-03-13T09:28:39;95000.53;;;17.25;22.14
6528;BME280;64597;42.664;23.256;2023-03-13T09:31:11;95014.41;;;17.33;22.59
6528;BME280;64597;42.664;23.256;2023-03-13T09:33:37;94992.53;;;17.36;22.37
6528;BME280;64597;42.664;23.256;2023-03-13T09:36:04;95015.53;;;17.67;22.11
6528;BME280;64597;42.664;23.256;2023-03-13T09:38:30;95015.50;;;17.47;22.21
6528;BME280;64597;42.664;23.256;2023-03-13T09:55:02;94998.72;;;17.96;22.84
6528;BME280;64597;42.664;23.256;2023-03-13T10:00:33;94995.25;;;17.96;22.38
6528;BME280;64597;42.664;23.256;2023-03-13T10:05:45;94996.28;;;17.95;22.78
6528;BME280;64597;42.664;23.256;2023-03-13T10:08:15;94973.94;;;17.66;22.45
6528;BME280;64597;42.664;23.256;2023-03-13T10:13:41;94977.94;;;17.78;22.70
6528;BME280;64597;42.664;23.256;2023-03-13T10:16:21;94974.94;;;17.29;23.26
6528;BME280;64597;42.664;23.256;2023-03-13T10:18:52;94966.97;;;17.35;23.61
6528;BME280;64597;42.664;23.256;2023-03-13T10:21:22;94954.72;;;17.49;23.64
6528;BME280;64597;42.664;23.256;2023-03-13T10:23:59;94937.13;;;17.48;23.44
6528;BME280;64597;42.664;23.256;2023-03-13T10:26:29;94954.47;;;17.50;24.14
6528;BME280;64597;42.664;23.256;2023-03-13T10:29:19;94922.97;;;17.42;23.25
6528;BME280;64597;42.664;23.256;2023-03-13T10:31:52;94928.59;;;17.30;23.33
6528;BME280;64597;42.664;23.256;2023-03-13T10:34:19;94942.97;;;17.35;23.75
6528;BME280;64597;42.664;23.256;2023-03-13T10:36:47;94937.09;;;17.27;23.98
6528;BME280;64597;42.664;23.256;2023-03-13T10:39:17;94934.97;;;17.24;23.83
6528;BME280;64597;42.664;23.256;2023-03-13T10:41:43;94924.84;;;17.16;23.83
6528;BME280;64597;42.664;23.256;2023-03-13T10:44:17;94924.84;;;17.01;24.34
6528;BME280;64597;42.664;23.256;2023-03-13T10:46:46;94913.66;;;17.09;23.60
6528;BME280;64597;42.664;23.256;2023-03-13T10:49:15;94920.31;;;17.32;23.80
6528;BME280;64597;42.664;23.256;2023-03-13T10:51:46;94915.25;;;17.25;23.87
6528;BME280;64597;42.664;23.256;2023-03-13T10:54:33;94917.13;;;17.30;23.84
6528;BME280;64597;42.664;23.256;2023-03-13T10:59:46;94921.09;;;17.07;24.86
6528;BME280;64597;42.664;23.256;2023-03-13T11:02:34;94910.19;;;17.14;24.37
6528;BME280;64597;42.664;23.256;2023-03-13T11:05:39;94904.34;;;17.07;24.53
6528;BME280;64597;42.664;23.256;2023-03-13T11:08:11;94902.19;;;16.94;24.41
6528;BME280;64597;42.664;23.256;2023-03-13T11:11:18;94904.84;;;16.99;23.93
6528;BME280;64597;42.664;23.256;2023-03-13T11:13:44;94895.75;;;16.60;24.15
6528;BME280;64597;42.664;23.256;2023-03-13T11:16:19;94890.13;;;16.56;24.75
6528;BME280;64597;42.664;23.256;2023-03-13T11:24:11;94883.72;;;16.47;24.91
6528;BME280;64597;42.664;23.256;2023-03-13T11:27:09;94885.09;;;16.60;24.83
6528;BME280;64597;42.664;23.256;2023-03-13T11:32:37;94865.81;;;16.27;25.11
6528;BME280;64597;42.664;23.256;2023-03-13T11:37:55;94857.38;;;16.45;25.38
6528;BME280;64597;42.664;23.256;2023-03-13T11:45:43;94849.16;;;16.57;24.46
6528;BME280;64597;42.664;23.256;2023-03-13T11:51:01;94838.25;;;16.69;25.11
6528;BME280;64597;42.664;23.256;2023-03-13T11:53:37;94835.28;;;16.50;24.70
6528;BME280;64597;42.664;23.256;2023-03-13T11:58:59;94834.88;;;15.44;26.01
6528;BME280;64597;42.664;23.256;2023-03-13T12:01:31;94822.81;;;15.27;25.88
6528;BME280;64597;42.664;23.256;2023-03-13T12:04:24;94821.31;;;15.04;26.41
6528;BME280;64597;42.664;23.256;2023-03-13T12:07:09;94824.41;;;14.91;27.20
6528;BME280;64597;42.664;23.256;2023-03-13T12:10:10;94821.31;;;15.04;26.90
6528;BME280;64597;42.664;23.256;2023-03-13T12:12:38;94812.94;;;15.22;27.13
6528;BME280;64597;42.664;23.256;2023-03-13T12:18:23;94795.75;;;15.40;26.96
6528;BME280;64597;42.664;23.256;2023-03-13T12:20:57;94800.91;;;15.56;27.64
6528;BME280;64597;42.664;23.256;2023-03-13T12:26:37;94796.91;;;15.54;27.00
6528;BME280;64597;42.664;23.256;2023-03-13T12:34:58;94797.84;;;15.85;26.59
6528;BME280;64597;42.664;23.256;2023-03-13T12:42:54;94793.88;;;15.82;27.05
6528;BME280;64597;42.664;23.256;2023-03-13T12:45:21;94782.75;;;15.38;26.19
6528;BME280;64597;42.664;23.256;2023-03-13T12:51:03;94785.94;;;15.40;26.81
6528;BME280;64597;42.664;23.256;2023-03-13T12:54:01;94794.91;;;15.29;26.45
6528;BME280;64597;42.664;23.256;2023-03-13T13:01:52;94801.53;;;15.27;26.73
6528;BME280;64597;42.664;23.256;2023-03-13T13:04:25;94794.25;;;15.07;26.85
6528;BME280;64597;42.664;23.256;2023-03-13T13:07:20;94792.88;;;15.05;27.48
6528;BME280;64597;42.664;23.256;2023-03-13T13:12:36;94787.34;;;15.11;26.79
6528;BME280;64597;42.664;23.256;2023-03-13T13:25:52;94791.25;;;14.30;28.22
6528;BME280;64597;42.664;23.256;2023-03-13T13:30:49;94781.63;;;14.51;27.89
6528;BME280;64597;42.664;23.256;2023-03-13T13:38:48;94766.72;;;14.45;27.63
6528;BME280;64597;42.664;23.256;2023-03-13T13:43:43;94757.22;;;14.54;27.98
6528;BME280;64597;42.664;23.256;2023-03-13T13:46:30;94767.91;;;14.64;27.51
6528;BME280;64597;42.664;23.256;2023-03-13T13:51:29;94766.31;;;14.63;27.27
6528;BME280;64597;42.664;23.256;2023-03-13T13:54:02;94764.72;;;14.62;27.54
6528;BME280;64597;42.664;23.256;2023-03-13T13:56:35;94763.88;;;14.56;27.73
6528;BME280;64597;42.664;23.256;2023-03-13T13:59:26;94762.59;;;14.59;27.54
6528;BME280;64597;42.664;23.256;2023-03-13T14:06:56;94760.69;;;14.54;27.89
6528;BME280;64597;42.664;23.256;2023-03-13T14:09:41;94759.00;;;14.43;27.80
6528;BME280;64597;42.664;23.256;2023-03-13T14:12:32;94750.34;;;14.53;28.23
6528;BME280;64597;42.664;23.256;2023-03-13T14:15:17;94748.16;;;14.50;27.95
6528;BME280;64597;42.664;23.256;2023-03-13T14:17:48;94748.69;;;14.47;27.90
6528;BME280;64597;42.664;23.256;2023-03-13T14:20:34;94747.59;;;14.43;28.21
6528;BME280;64597;42.664;23.256;2023-03-13T14:23:02;94747.59;;;14.43;27.64
6528;BME280;64597;42.664;23.256;2023-03-13T14:25:46;94736.91;;;14.33;27.96
6528;BME280;64597;42.664;23.256;2023-03-13T14:30:47;94751.22;;;14.32;28.70
6528;BME280;64597;42.664;23.256;2023-03-13T14:33:13;94748.19;;;14.23;28.66
6528;BME280;64597;42.664;23.256;2023-03-13T14:35:40;94751.16;;;14.27;27.90
6528;BME280;64597;42.664;23.256;2023-03-13T14:38:05;94750.53;;;14.20;28.24
6528;BME280;64597;42.664;23.256;2023-03-13T14:40:36;94744.09;;;14.11;28.51
6528;BME280;64597;42.664;23.256;2023-03-13T14:43:03;94753.13;;;14.15;28.50
6528;BME280;64597;42.664;23.256;2023-03-13T14:45:31;94753.09;;;14.10;28.48
6528;BME280;64597;42.664;23.256;2023-03-13T14:50:44;94739.19;;;13.97;28.09
6528;BME280;64597;42.664;23.256;2023-03-13T14:53:16;94733.16;;;14.02;28.39
6528;BME280;64597;42.664;23.256;2023-03-13T14:55:42;94688.84;;;13.71;28.66
6528;BME280;64597;42.664;23.256;2023-03-13T14:58:25;94750.72;;;14.08;28.28
6528;BME280;64597;42.664;23.256;2023-03-13T15:00:52;94741.09;;;14.02;28.48
6528;BME280;64597;42.664;23.256;2023-03-13T15:03:26;94744.78;;;14.01;28.49
6528;BME280;64597;42.664;23.256;2023-03-13T15:08:33;94742.94;;;13.75;28.94
6528;BME280;64597;42.664;23.256;2023-03-13T15:10:59;94743.19;;;13.73;29.03
6528;BME280;64597;42.664;23.256;2023-03-13T15:13:32;94752.81;;;13.79;29.01
6528;BME280;64597;42.664;23.256;2023-03-13T15:15:59;94754.91;;;13.77;29.16